sensor_id;sensor_type;location;lat;lon;timestamp;P1;durP1;ratioP1;P2;durP2;ratioP2
9739;SDS011;4909;42.680;26.324;2022-10-16T00:00:38;5.43;;;3.70;;
9739;SDS011;4909;42.680;26.324;2022-10-16T00:03:07;4.07;;;3.63;;
9739;SDS011;4909;42.680;26.324;2022-10-16T00:05:37;6.70;;;4.70;;
9739;SDS011;4909;42.680;26.324;2022-10-16T00:08:05;7.33;;;4.43;;
9739;SDS011;4909;42.680;26.324;2022-10-16T00:10:33;6.47;;;4.23;;
9739;SDS011;4909;42.680;26.324;2022-10-16T00:13:01;7.57;;;4.67;;
9739;SDS011;4909;42.680;26.324;2022-10-16T00:15:28;10.10;;;5.10;;
9739;SDS011;4909;42.680;26.324;2022-10-16T00:17:55;6.40;;;4.10;;
9739;SDS011;4909;42.680;26.324;2022-10-16T00:20:22;10.13;;;5.63;;
9739;SDS011;4909;42.680;26.324;2022-10-16T00:22:49;9.47;;;5.20;;
9739;SDS011;4909;42.680;26.324;2022-10-16T00:25:15;4.67;;;4.10;;
9739;SDS011;4909;42.680;26.324;2022-10-16T00:27:42;5.80;;;4.63;;
9739;SDS011;4909;42.680;26.324;2022-10-16T00:30:10;6.97;;;4.80;;
9739;SDS011;4909;42.680;26.324;2022-10-16T00:32:37;6.27;;;4.53;;
9739;SDS011;4909;42.680;26.324;2022-10-16T00:35:04;7.97;;;4.67;;
9739;SDS011;4909;42.680;26.324;2022-10-16T00:37:31;5.00;;;4.07;;
9739;SDS011;4909;42.680;26.324;2022-10-16T00:39:58;6.53;;;5.03;;
9739;SDS011;4909;42.680;26.324;2022-10-16T00:42:25;6.10;;;4.47;;
9739;SDS011;4909;42.680;26.324;2022-10-16T00:44:52;7.87;;;4.50;;
9739;SDS011;4909;42.680;26.324;2022-10-16T00:47:24;4.63;;;4.20;;
9739;SDS011;4909;42.680;26.324;2022-10-16T00:49:56;4.37;;;4.07;;
9739;SDS011;4909;42.680;26.324;2022-10-16T00:52:27;9.80;;;5.10;;
9739;SDS011;4909;42.680;26.324;2022-10-16T00:54:54;8.33;;;5.37;;
9739;SDS011;4909;42.680;26.324;2022-10-16T00:57:22;4.47;;;4.13;;
9739;SDS011;4909;42.680;26.324;2022-10-16T00:59:50;6.27;;;4.43;;
9739;SDS011;4909;42.680;26.324;2022-10-16T01:02:18;8.40;;;5.10;;
9739;SDS011;4909;42.680;26.324;2022-10-16T01:04:47;5.83;;;3.97;;
9739;SDS011;4909;42.680;26.324;2022-10-16T01:07:20;6.77;;;4.73;;
9739;SDS011;4909;42.680;26.324;2022-10-16T01:10:03;6.53;;;4.63;;
9739;SDS011;4909;42.680;26.324;2022-10-16T01:12:36;4.37;;;4.07;;
9739;SDS011;4909;42.680;26.324;2022-10-16T01:15:09;6.97;;;5.03;;
9739;SDS011;4909;42.680;26.324;2022-10-16T01:17:42;10.57;;;5.63;;
9739;SDS011;4909;42.680;26.324;2022-10-16T01:20:18;5.93;;;4.57;;
9739;SDS011;4909;42.680;26.324;2022-10-16T01:22:56;5.40;;;4.43;;
9739;SDS011;4909;42.680;26.324;2022-10-16T01:25:39;10.93;;;5.40;;
9739;SDS011;4909;42.680;26.324;2022-10-16T01:28:24;10.07;;;5.40;;
9739;SDS011;4909;42.680;26.324;2022-10-16T01:30:58;6.87;;;4.83;;
9739;SDS011;4909;42.680;26.324;2022-10-16T01:33:28;5.07;;;4.47;;
9739;SDS011;4909;42.680;26.324;2022-10-16T01:36:02;9.53;;;5.53;;
9739;SDS011;4909;42.680;26.324;2022-10-16T01:38:36;4.37;;;4.03;;
9739;SDS011;4909;42.680;26.324;2022-10-16T01:41:06;4.93;;;4.17;;
9739;SDS011;4909;42.680;26.324;2022-10-16T01:43:38;6.77;;;5.17;;
9739;SDS011;4909;42.680;26.324;2022-10-16T01:46:07;5.17;;;4.27;;
9739;SDS011;4909;42.680;26.324;2022-10-16T01:48:36;8.03;;;4.73;;
9739;SDS011;4909;42.680;26.324;2022-10-16T01:51:05;12.20;;;5.83;;
9739;SDS011;4909;42.680;26.324;2022-10-16T01:53:34;9.00;;;5.60;;
9739;SDS011;4909;42.680;26.324;2022-10-16T01:56:03;6.17;;;4.57;;
9739;SDS011;4909;42.680;26.324;2022-10-16T01:58:36;5.43;;;4.93;;
9739;SDS011;4909;42.680;26.324;2022-10-16T02:01:08;6.00;;;5.27;;
9739;SDS011;4909;42.680;26.324;2022-10-16T02:03:38;7.50;;;5.43;;
9739;SDS011;4909;42.680;26.324;2022-10-16T02:06:09;4.70;;;4.40;;
9739;SDS011;4909;42.680;26.324;2022-10-16T02:08:36;6.17;;;5.30;;
9739;SDS011;4909;42.680;26.324;2022-10-16T02:11:05;6.07;;;5.23;;
9739;SDS011;4909;42.680;26.324;2022-10-16T02:13:34;9.23;;;6.20;;
9739;SDS011;4909;42.680;26.324;2022-10-16T02:16:07;7.03;;;5.33;;
9739;SDS011;4909;42.680;26.324;2022-10-16T02:18:36;6.37;;;5.30;;
9739;SDS011;4909;42.680;26.324;2022-10-16T02:21:04;5.23;;;4.83;;
9739;SDS011;4909;42.680;26.324;2022-10-16T02:23:41;7.10;;;5.43;;
9739;SDS011;4909;42.680;26.324;2022-10-16T02:26:15;5.77;;;5.37;;
9739;SDS011;4909;42.680;26.324;2022-10-16T02:28:51;5.17;;;4.77;;
9739;SDS011;4909;42.680;26.324;2022-10-16T02:31:23;5.83;;;5.23;;
9739;SDS011;4909;42.680;26.324;2022-10-16T02:33:53;6.17;;;5.47;;
9739;SDS011;4909;42.680;26.324;2022-10-16T02:36:24;6.27;;;5.40;;
9739;SDS011;4909;42.680;26.324;2022-10-16T02:38:51;6.63;;;5.73;;
9739;SDS011;4909;42.680;26.324;2022-10-16T02:41:20;6.67;;;6.03;;
9739;SDS011;4909;42.680;26.324;2022-10-16T02:43:47;8.33;;;6.20;;
9739;SDS011;4909;42.680;26.324;2022-10-16T02:46:15;9.13;;;7.03;;
9739;SDS011;4909;42.680;26.324;2022-10-16T02:48:44;7.23;;;6.37;;
9739;SDS011;4909;42.680;26.324;2022-10-16T02:51:11;6.40;;;5.97;;
9739;SDS011;4909;42.680;26.324;2022-10-16T02:53:38;8.27;;;6.90;;
9739;SDS011;4909;42.680;26.324;2022-10-16T02:56:04;7.00;;;6.33;;
9739;SDS011;4909;42.680;26.324;2022-10-16T02:58:31;7.67;;;6.90;;
9739;SDS011;4909;42.680;26.324;2022-10-16T03:00:58;7.53;;;6.83;;
9739;SDS011;4909;42.680;26.324;2022-10-16T03:03:25;6.47;;;6.03;;
9739;SDS011;4909;42.680;26.324;2022-10-16T03:05:53;9.03;;;7.73;;
9739;SDS011;4909;42.680;26.324;2022-10-16T03:08:20;8.63;;;7.50;;
9739;SDS011;4909;42.680;26.324;2022-10-16T03:10:48;8.47;;;7.60;;
9739;SDS011;4909;42.680;26.324;2022-10-16T03:13:15;7.23;;;6.63;;
9739;SDS011;4909;42.680;26.324;2022-10-16T03:15:43;9.00;;;7.67;;
9739;SDS011;4909;42.680;26.324;2022-10-16T03:18:10;8.23;;;7.43;;
9739;SDS011;4909;42.680;26.324;2022-10-16T03:20:36;10.27;;;9.00;;
9739;SDS011;4909;42.680;26.324;2022-10-16T03:23:05;9.73;;;8.80;;
9739;SDS011;4909;42.680;26.324;2022-10-16T03:25:33;9.63;;;8.93;;
9739;SDS011;4909;42.680;26.324;2022-10-16T03:28:00;12.00;;;10.97;;
9739;SDS011;4909;42.680;26.324;2022-10-16T03:30:26;10.27;;;9.27;;
9739;SDS011;4909;42.680;26.324;2022-10-16T03:32:53;11.87;;;10.13;;
9739;SDS011;4909;42.680;26.324;2022-10-16T03:35:20;10.83;;;9.77;;
9739;SDS011;4909;42.680;26.324;2022-10-16T03:37:47;12.27;;;11.37;;
9739;SDS011;4909;42.680;26.324;2022-10-16T03:40:15;14.47;;;13.40;;
9739;SDS011;4909;42.680;26.324;2022-10-16T03:42:42;17.53;;;16.40;;
9739;SDS011;4909;42.680;26.324;2022-10-16T03:45:10;20.67;;;19.80;;
9739;SDS011;4909;42.680;26.324;2022-10-16T03:47:37;36.00;;;34.40;;
9739;SDS011;4909;42.680;26.324;2022-10-16T03:50:04;7.50;;;6.60;;
9739;SDS011;4909;42.680;26.324;2022-10-16T03:52:32;4.83;;;2.70;;
9739;SDS011;4909;42.680;26.324;2022-10-16T03:54:59;2.77;;;2.37;;
9739;SDS011;4909;42.680;26.324;2022-10-16T03:57:27;9.57;;;3.30;;
9739;SDS011;4909;42.680;26.324;2022-10-16T03:59:54;4.57;;;2.23;;
9739;SDS011;4909;42.680;26.324;2022-10-16T04:02:20;5.67;;;2.53;;
9739;SDS011;4909;42.680;26.324;2022-10-16T04:04:47;5.50;;;2.60;;
9739;SDS011;4909;42.680;26.324;2022-10-16T04:07:14;4.27;;;2.17;;
9739;SDS011;4909;42.680;26.324;2022-10-16T04:09:41;5.33;;;2.37;;
9739;SDS011;4909;42.680;26.324;2022-10-16T04:12:08;5.93;;;2.57;;
9739;SDS011;4909;42.680;26.324;2022-10-16T04:14:36;4.20;;;2.10;;
9739;SDS011;4909;42.680;26.324;2022-10-16T04:17:03;6.00;;;2.33;;
9739;SDS011;4909;42.680;26.324;2022-10-16T04:19:29;4.77;;;2.20;;
9739;SDS011;4909;42.680;26.324;2022-10-16T04:21:56;5.90;;;2.30;;
9739;SDS011;4909;42.680;26.324;2022-10-16T04:24:23;10.60;;;3.27;;
9739;SDS011;4909;42.680;26.324;2022-10-16T04:26:50;4.87;;;2.30;;
9739;SDS011;4909;42.680;26.324;2022-10-16T04:29:17;5.33;;;2.20;;
9739;SDS011;4909;42.680;26.324;2022-10-16T04:31:46;7.30;;;2.77;;
9739;SDS011;4909;42.680;26.324;2022-10-16T04:34:12;4.60;;;2.10;;
9739;SDS011;4909;42.680;26.324;2022-10-16T04:36:39;5.30;;;2.20;;
9739;SDS011;4909;42.680;26.324;2022-10-16T04:39:06;4.17;;;2.17;;
9739;SDS011;4909;42.680;26.324;2022-10-16T04:41:33;5.43;;;2.37;;
9739;SDS011;4909;42.680;26.324;2022-10-16T04:44:00;5.67;;;2.37;;
9739;SDS011;4909;42.680;26.324;2022-10-16T04:46:27;6.63;;;2.43;;
9739;SDS011;4909;42.680;26.324;2022-10-16T04:48:55;8.70;;;3.00;;
9739;SDS011;4909;42.680;26.324;2022-10-16T04:51:21;8.60;;;2.73;;
9739;SDS011;4909;42.680;26.324;2022-10-16T04:53:48;5.53;;;2.37;;
9739;SDS011;4909;42.680;26.324;2022-10-16T04:56:15;6.83;;;2.53;;
9739;SDS011;4909;42.680;26.324;2022-10-16T04:58:42;7.13;;;2.40;;
9739;SDS011;4909;42.680;26.324;2022-10-16T05:01:09;10.13;;;3.07;;
9739;SDS011;4909;42.680;26.324;2022-10-16T05:03:35;8.33;;;2.60;;
9739;SDS011;4909;42.680;26.324;2022-10-16T05:06:06;5.43;;;2.10;;
9739;SDS011;4909;42.680;26.324;2022-10-16T05:08:33;5.37;;;2.20;;
9739;SDS011;4909;42.680;26.324;2022-10-16T05:11:00;7.00;;;2.37;;
9739;SDS011;4909;42.680;26.324;2022-10-16T05:13:27;6.13;;;2.33;;
9739;SDS011;4909;42.680;26.324;2022-10-16T05:15:54;8.57;;;2.63;;
9739;SDS011;4909;42.680;26.324;2022-10-16T05:18:22;6.00;;;2.33;;
9739;SDS011;4909;42.680;26.324;2022-10-16T05:20:49;8.63;;;3.03;;
9739;SDS011;4909;42.680;26.324;2022-10-16T05:23:17;7.37;;;2.57;;
9739;SDS011;4909;42.680;26.324;2022-10-16T05:25:51;8.20;;;2.83;;
9739;SDS011;4909;42.680;26.324;2022-10-16T05:28:18;4.33;;;2.03;;
9739;SDS011;4909;42.680;26.324;2022-10-16T05:30:45;3.87;;;1.90;;
9739;SDS011;4909;42.680;26.324;2022-10-16T05:33:12;8.60;;;2.77;;
9739;SDS011;4909;42.680;26.324;2022-10-16T05:35:39;6.73;;;2.37;;
9739;SDS011;4909;42.680;26.324;2022-10-16T05:38:05;10.10;;;2.90;;
9739;SDS011;4909;42.680;26.324;2022-10-16T05:40:34;9.73;;;2.97;;
9739;SDS011;4909;42.680;26.324;2022-10-16T05:43:00;7.60;;;2.83;;
9739;SDS011;4909;42.680;26.324;2022-10-16T05:45:27;6.33;;;2.30;;
9739;SDS011;4909;42.680;26.324;2022-10-16T05:47:54;7.97;;;2.73;;
9739;SDS011;4909;42.680;26.324;2022-10-16T05:50:21;8.73;;;3.07;;
9739;SDS011;4909;42.680;26.324;2022-10-16T05:52:47;9.47;;;3.23;;
9739;SDS011;4909;42.680;26.324;2022-10-16T05:55:14;12.03;;;3.63;;
9739;SDS011;4909;42.680;26.324;2022-10-16T05:57:43;11.93;;;3.97;;
9739;SDS011;4909;42.680;26.324;2022-10-16T06:00:10;9.70;;;3.47;;
9739;SDS011;4909;42.680;26.324;2022-10-16T06:02:37;12.03;;;3.97;;
9739;SDS011;4909;42.680;26.324;2022-10-16T06:05:04;12.23;;;3.80;;
9739;SDS011;4909;42.680;26.324;2022-10-16T06:07:33;11.03;;;3.77;;
9739;SDS011;4909;42.680;26.324;2022-10-16T06:10:00;2.70;;;2.10;;
9739;SDS011;4909;42.680;26.324;2022-10-16T06:12:27;4.83;;;2.33;;
9739;SDS011;4909;42.680;26.324;2022-10-16T06:14:56;7.43;;;3.07;;
9739;SDS011;4909;42.680;26.324;2022-10-16T06:17:22;5.90;;;3.00;;
9739;SDS011;4909;42.680;26.324;2022-10-16T06:19:49;7.47;;;3.00;;
9739;SDS011;4909;42.680;26.324;2022-10-16T06:22:16;5.07;;;2.57;;
9739;SDS011;4909;42.680;26.324;2022-10-16T06:24:43;4.70;;;2.77;;
9739;SDS011;4909;42.680;26.324;2022-10-16T06:27:10;6.70;;;3.17;;
9739;SDS011;4909;42.680;26.324;2022-10-16T06:29:36;9.73;;;4.57;;
9739;SDS011;4909;42.680;26.324;2022-10-16T06:32:05;10.63;;;5.83;;
9739;SDS011;4909;42.680;26.324;2022-10-16T06:34:31;8.80;;;8.00;;
9739;SDS011;4909;42.680;26.324;2022-10-16T06:36:58;16.93;;;15.43;;
9739;SDS011;4909;42.680;26.324;2022-10-16T06:39:25;28.07;;;26.33;;
9739;SDS011;4909;42.680;26.324;2022-10-16T06:41:52;52.40;;;49.73;;
9739;SDS011;4909;42.680;26.324;2022-10-16T06:44:18;96.47;;;91.90;;
9739;SDS011;4909;42.680;26.324;2022-10-16T06:46:45;133.13;;;128.00;;
9739;SDS011;4909;42.680;26.324;2022-10-16T06:49:13;191.80;;;184.93;;
9739;SDS011;4909;42.680;26.324;2022-10-16T06:51:46;254.50;;;244.90;;
9739;SDS011;4909;42.680;26.324;2022-10-16T06:54:14;282.93;;;272.03;;
9739;SDS011;4909;42.680;26.324;2022-10-16T06:56:42;258.03;;;248.83;;
9739;SDS011;4909;42.680;26.324;2022-10-16T06:59:09;217.90;;;210.47;;
9739;SDS011;4909;42.680;26.324;2022-10-16T07:01:36;210.60;;;203.40;;
9739;SDS011;4909;42.680;26.324;2022-10-16T07:04:03;194.90;;;187.17;;
9739;SDS011;4909;42.680;26.324;2022-10-16T07:06:33;191.97;;;185.50;;
9739;SDS011;4909;42.680;26.324;2022-10-16T07:09:00;186.27;;;179.77;;
9739;SDS011;4909;42.680;26.324;2022-10-16T07:11:29;151.73;;;145.83;;
9739;SDS011;4909;42.680;26.324;2022-10-16T07:13:56;142.10;;;136.60;;
9739;SDS011;4909;42.680;26.324;2022-10-16T07:16:24;116.77;;;112.03;;
9739;SDS011;4909;42.680;26.324;2022-10-16T07:18:53;89.23;;;85.73;;
9739;SDS011;4909;42.680;26.324;2022-10-16T07:21:23;121.00;;;116.13;;
9739;SDS011;4909;42.680;26.324;2022-10-16T07:23:53;119.63;;;115.47;;
9739;SDS011;4909;42.680;26.324;2022-10-16T07:26:21;199.23;;;191.70;;
9739;SDS011;4909;42.680;26.324;2022-10-16T07:28:48;267.73;;;257.80;;
9739;SDS011;4909;42.680;26.324;2022-10-16T07:31:15;330.53;;;317.80;;
9739;SDS011;4909;42.680;26.324;2022-10-16T07:33:43;324.40;;;312.92;;
9739;SDS011;4909;42.680;26.324;2022-10-16T07:36:13;309.95;;;298.58;;
9739;SDS011;4909;42.680;26.324;2022-10-16T07:38:40;290.13;;;279.35;;
9739;SDS011;4909;42.680;26.324;2022-10-16T07:41:10;322.90;;;311.65;;
9739;SDS011;4909;42.680;26.324;2022-10-16T07:43:38;309.33;;;297.75;;
9739;SDS011;4909;42.680;26.324;2022-10-16T07:46:05;348.25;;;335.88;;
9739;SDS011;4909;42.680;26.324;2022-10-16T07:48:33;403.67;;;388.30;;
9739;SDS011;4909;42.680;26.324;2022-10-16T07:51:01;423.23;;;406.98;;
9739;SDS011;4909;42.680;26.324;2022-10-16T07:53:29;398.95;;;383.45;;
9739;SDS011;4909;42.680;26.324;2022-10-16T07:55:59;466.50;;;447.85;;
9739;SDS011;4909;42.680;26.324;2022-10-16T07:58:28;484.25;;;464.75;;
9739;SDS011;4909;42.680;26.324;2022-10-16T08:00:55;466.88;;;448.48;;
9739;SDS011;4909;42.680;26.324;2022-10-16T08:03:22;454.70;;;436.52;;
9739;SDS011;4909;42.680;26.324;2022-10-16T08:05:49;448.08;;;430.77;;
9739;SDS011;4909;42.680;26.324;2022-10-16T08:08:17;448.27;;;430.60;;
9739;SDS011;4909;42.680;26.324;2022-10-16T08:10:44;435.80;;;419.08;;
9739;SDS011;4909;42.680;26.324;2022-10-16T08:13:11;429.83;;;413.55;;
9739;SDS011;4909;42.680;26.324;2022-10-16T08:15:41;408.45;;;393.10;;
9739;SDS011;4909;42.680;26.324;2022-10-16T08:18:08;405.55;;;389.90;;
9739;SDS011;4909;42.680;26.324;2022-10-16T08:20:36;403.88;;;388.73;;
9739;SDS011;4909;42.680;26.324;2022-10-16T08:23:03;381.73;;;367.25;;
9739;SDS011;4909;42.680;26.324;2022-10-16T08:25:30;340.50;;;328.05;;
9739;SDS011;4909;42.680;26.324;2022-10-16T08:27:57;340.42;;;327.80;;
9739;SDS011;4909;42.680;26.324;2022-10-16T08:30:24;306.55;;;295.38;;
9739;SDS011;4909;42.680;26.324;2022-10-16T08:32:52;275.63;;;265.98;;
9739;SDS011;4909;42.680;26.324;2022-10-16T08:35:19;247.20;;;238.43;;
9739;SDS011;4909;42.680;26.324;2022-10-16T08:37:46;267.23;;;257.83;;
9739;SDS011;4909;42.680;26.324;2022-10-16T08:40:16;251.63;;;242.50;;
9739;SDS011;4909;42.680;26.324;2022-10-16T08:46:13;178.57;;;172.00;;
9739;SDS011;4909;42.680;26.324;2022-10-16T08:48:58;178.23;;;171.27;;
9739;SDS011;4909;42.680;26.324;2022-10-16T08:51:27;205.97;;;198.43;;
9739;SDS011;4909;42.680;26.324;2022-10-16T08:53:58;177.13;;;171.07;;
9739;SDS011;4909;42.680;26.324;2022-10-16T08:56:28;157.23;;;151.50;;
9739;SDS011;4909;42.680;26.324;2022-10-16T08:58:54;163.83;;;157.60;;
9739;SDS011;4909;42.680;26.324;2022-10-16T09:01:24;126.47;;;121.60;;
9739;SDS011;4909;42.680;26.324;2022-10-16T09:07:08;99.53;;;95.63;;
9739;SDS011;4909;42.680;26.324;2022-10-16T09:09:51;101.20;;;97.63;;
9739;SDS011;4909;42.680;26.324;2022-10-16T09:12:28;101.77;;;97.60;;
9739;SDS011;4909;42.680;26.324;2022-10-16T09:15:07;87.43;;;83.80;;
9739;SDS011;4909;42.680;26.324;2022-10-16T09:17:47;83.47;;;80.20;;
9739;SDS011;4909;42.680;26.324;2022-10-16T09:20:22;76.57;;;73.83;;
9739;SDS011;4909;42.680;26.324;2022-10-16T09:23:09;56.63;;;53.80;;
9739;SDS011;4909;42.680;26.324;2022-10-16T09:25:41;48.73;;;46.43;;
9739;SDS011;4909;42.680;26.324;2022-10-16T09:28:10;39.63;;;37.33;;
9739;SDS011;4909;42.680;26.324;2022-10-16T09:30:37;32.03;;;30.13;;
9739;SDS011;4909;42.680;26.324;2022-10-16T09:33:05;30.23;;;28.43;;
9739;SDS011;4909;42.680;26.324;2022-10-16T09:35:35;29.10;;;27.13;;
9739;SDS011;4909;42.680;26.324;2022-10-16T09:38:04;20.07;;;19.07;;
9739;SDS011;4909;42.680;26.324;2022-10-16T09:40:32;22.60;;;21.00;;
9739;SDS011;4909;42.680;26.324;2022-10-16T09:43:06;15.13;;;14.17;;
9739;SDS011;4909;42.680;26.324;2022-10-16T09:45:53;13.73;;;13.00;;
9739;SDS011;4909;42.680;26.324;2022-10-16T09:48:23;13.30;;;12.13;;
9739;SDS011;4909;42.680;26.324;2022-10-16T09:50:57;11.60;;;10.70;;
9739;SDS011;4909;42.680;26.324;2022-10-16T09:53:26;11.60;;;10.33;;
9739;SDS011;4909;42.680;26.324;2022-10-16T09:56:06;11.10;;;10.10;;
9739;SDS011;4909;42.680;26.324;2022-10-16T09:58:41;11.07;;;10.13;;
9739;SDS011;4909;42.680;26.324;2022-10-16T10:01:11;11.93;;;10.70;;
9739;SDS011;4909;42.680;26.324;2022-10-16T10:03:41;14.00;;;10.87;;
9739;SDS011;4909;42.680;26.324;2022-10-16T10:06:23;9.90;;;9.07;;
9739;SDS011;4909;42.680;26.324;2022-10-16T10:11:44;10.50;;;9.40;;
9739;SDS011;4909;42.680;26.324;2022-10-16T10:14:23;11.17;;;8.93;;
9739;SDS011;4909;42.680;26.324;2022-10-16T10:17:01;11.53;;;8.50;;
9739;SDS011;4909;42.680;26.324;2022-10-16T10:19:39;9.93;;;8.53;;
9739;SDS011;4909;42.680;26.324;2022-10-16T10:22:19;11.23;;;8.60;;
9739;SDS011;4909;42.680;26.324;2022-10-16T10:28:06;15.43;;;9.30;;
9739;SDS011;4909;42.680;26.324;2022-10-16T10:31:02;9.77;;;8.07;;
9739;SDS011;4909;42.680;26.324;2022-10-16T10:33:36;10.93;;;8.00;;
9739;SDS011;4909;42.680;26.324;2022-10-16T10:36:11;12.60;;;8.67;;
9739;SDS011;4909;42.680;26.324;2022-10-16T10:38:49;9.97;;;8.00;;
9739;SDS011;4909;42.680;26.324;2022-10-16T10:41:30;7.83;;;7.10;;
9739;SDS011;4909;42.680;26.324;2022-10-16T10:44:16;6.50;;;5.97;;
9739;SDS011;4909;42.680;26.324;2022-10-16T10:46:57;6.73;;;6.13;;
9739;SDS011;4909;42.680;26.324;2022-10-16T10:49:34;7.73;;;6.40;;
9739;SDS011;4909;42.680;26.324;2022-10-16T10:52:26;7.23;;;6.53;;
9739;SDS011;4909;42.680;26.324;2022-10-16T10:55:09;7.93;;;6.67;;
9739;SDS011;4909;42.680;26.324;2022-10-16T10:57:49;8.63;;;6.90;;
9739;SDS011;4909;42.680;26.324;2022-10-16T11:00:42;11.53;;;7.73;;
9739;SDS011;4909;42.680;26.324;2022-10-16T11:03:19;14.47;;;8.57;;
9739;SDS011;4909;42.680;26.324;2022-10-16T11:05:58;9.10;;;7.23;;
9739;SDS011;4909;42.680;26.324;2022-10-16T11:08:29;10.20;;;8.10;;
9739;SDS011;4909;42.680;26.324;2022-10-16T11:11:03;11.63;;;8.03;;
9739;SDS011;4909;42.680;26.324;2022-10-16T11:13:35;12.17;;;7.77;;
9739;SDS011;4909;42.680;26.324;2022-10-16T11:16:10;8.20;;;6.60;;
9739;SDS011;4909;42.680;26.324;2022-10-16T11:18:44;7.60;;;6.73;;
9739;SDS011;4909;42.680;26.324;2022-10-16T11:21:16;9.53;;;7.07;;
9739;SDS011;4909;42.680;26.324;2022-10-16T11:23:47;8.93;;;6.83;;
9739;SDS011;4909;42.680;26.324;2022-10-16T11:26:23;10.70;;;7.53;;
9739;SDS011;4909;42.680;26.324;2022-10-16T11:28:54;9.00;;;6.97;;
9739;SDS011;4909;42.680;26.324;2022-10-16T11:31:25;9.60;;;7.20;;
9739;SDS011;4909;42.680;26.324;2022-10-16T11:34:01;9.20;;;7.30;;
9739;SDS011;4909;42.680;26.324;2022-10-16T11:36:38;7.53;;;6.67;;
9739;SDS011;4909;42.680;26.324;2022-10-16T11:39:11;11.70;;;7.63;;
9739;SDS011;4909;42.680;26.324;2022-10-16T11:41:47;7.33;;;6.67;;
9739;SDS011;4909;42.680;26.324;2022-10-16T11:44:31;8.10;;;6.23;;
9739;SDS011;4909;42.680;26.324;2022-10-16T11:47:08;7.40;;;5.97;;
9739;SDS011;4909;42.680;26.324;2022-10-16T11:49:46;10.97;;;7.17;;
9739;SDS011;4909;42.680;26.324;2022-10-16T11:52:19;8.87;;;6.30;;
9739;SDS011;4909;42.680;26.324;2022-10-16T11:54:50;13.80;;;6.50;;
9739;SDS011;4909;42.680;26.324;2022-10-16T11:57:22;10.83;;;6.07;;
9739;SDS011;4909;42.680;26.324;2022-10-16T11:59:51;6.70;;;5.23;;
9739;SDS011;4909;42.680;26.324;2022-10-16T12:02:27;6.90;;;5.27;;
9739;SDS011;4909;42.680;26.324;2022-10-16T12:05:02;5.20;;;4.50;;
9739;SDS011;4909;42.680;26.324;2022-10-16T12:07:41;3.70;;;3.50;;
9739;SDS011;4909;42.680;26.324;2022-10-16T12:10:19;9.23;;;5.40;;
9739;SDS011;4909;42.680;26.324;2022-10-16T12:12:49;7.70;;;5.10;;
9739;SDS011;4909;42.680;26.324;2022-10-16T12:15:21;4.70;;;4.30;;
9739;SDS011;4909;42.680;26.324;2022-10-16T12:17:50;5.70;;;4.83;;
9739;SDS011;4909;42.680;26.324;2022-10-16T12:20:22;6.90;;;5.07;;
9739;SDS011;4909;42.680;26.324;2022-10-16T12:22:56;6.00;;;4.97;;
9739;SDS011;4909;42.680;26.324;2022-10-16T12:25:25;9.13;;;5.50;;
9739;SDS011;4909;42.680;26.324;2022-10-16T12:27:57;6.10;;;4.83;;
9739;SDS011;4909;42.680;26.324;2022-10-16T12:30:27;4.80;;;4.10;;
9739;SDS011;4909;42.680;26.324;2022-10-16T12:32:56;6.80;;;4.53;;
9739;SDS011;4909;42.680;26.324;2022-10-16T12:35:27;5.50;;;4.73;;
9739;SDS011;4909;42.680;26.324;2022-10-16T12:38:04;5.97;;;4.77;;
9739;SDS011;4909;42.680;26.324;2022-10-16T12:40:34;9.00;;;5.07;;
9739;SDS011;4909;42.680;26.324;2022-10-16T12:46:20;8.30;;;4.60;;
9739;SDS011;4909;42.680;26.324;2022-10-16T12:48:50;9.13;;;4.83;;
9739;SDS011;4909;42.680;26.324;2022-10-16T12:51:22;6.07;;;4.93;;
9739;SDS011;4909;42.680;26.324;2022-10-16T12:54:00;10.10;;;5.20;;
9739;SDS011;4909;42.680;26.324;2022-10-16T12:56:31;9.70;;;4.80;;
9739;SDS011;4909;42.680;26.324;2022-10-16T12:59:11;4.60;;;3.87;;
9739;SDS011;4909;42.680;26.324;2022-10-16T13:01:52;11.67;;;6.00;;
9739;SDS011;4909;42.680;26.324;2022-10-16T13:04:31;14.27;;;5.80;;
9739;SDS011;4909;42.680;26.324;2022-10-16T13:07:32;10.97;;;5.13;;
9739;SDS011;4909;42.680;26.324;2022-10-16T13:10:12;7.90;;;4.60;;
9739;SDS011;4909;42.680;26.324;2022-10-16T13:12:50;9.93;;;5.10;;
9739;SDS011;4909;42.680;26.324;2022-10-16T13:15:48;10.63;;;4.73;;
9739;SDS011;4909;42.680;26.324;2022-10-16T13:18:25;6.23;;;4.17;;
9739;SDS011;4909;42.680;26.324;2022-10-16T13:21:05;11.00;;;4.93;;
9739;SDS011;4909;42.680;26.324;2022-10-16T13:23:47;8.97;;;4.67;;
9739;SDS011;4909;42.680;26.324;2022-10-16T13:26:23;5.03;;;3.50;;
9739;SDS011;4909;42.680;26.324;2022-10-16T13:29:00;6.13;;;3.87;;
9739;SDS011;4909;42.680;26.324;2022-10-16T13:31:29;8.33;;;4.33;;
9739;SDS011;4909;42.680;26.324;2022-10-16T13:33:57;9.90;;;4.97;;
9739;SDS011;4909;42.680;26.324;2022-10-16T13:36:26;8.00;;;4.47;;
9739;SDS011;4909;42.680;26.324;2022-10-16T13:38:59;7.43;;;4.23;;
9739;SDS011;4909;42.680;26.324;2022-10-16T13:41:32;8.50;;;4.57;;
9739;SDS011;4909;42.680;26.324;2022-10-16T13:43:59;9.43;;;4.83;;
9739;SDS011;4909;42.680;26.324;2022-10-16T13:46:26;8.60;;;4.93;;
9739;SDS011;4909;42.680;26.324;2022-10-16T13:48:59;8.83;;;4.67;;
9739;SDS011;4909;42.680;26.324;2022-10-16T13:51:27;8.87;;;4.73;;
9739;SDS011;4909;42.680;26.324;2022-10-16T13:53:54;9.70;;;4.70;;
9739;SDS011;4909;42.680;26.324;2022-10-16T13:56:24;10.67;;;5.00;;
9739;SDS011;4909;42.680;26.324;2022-10-16T13:58:59;8.90;;;4.90;;
9739;SDS011;4909;42.680;26.324;2022-10-16T14:01:27;7.13;;;4.27;;
9739;SDS011;4909;42.680;26.324;2022-10-16T14:04:01;6.33;;;4.03;;
9739;SDS011;4909;42.680;26.324;2022-10-16T14:06:30;8.33;;;4.43;;
9739;SDS011;4909;42.680;26.324;2022-10-16T14:08:59;7.23;;;4.20;;
9739;SDS011;4909;42.680;26.324;2022-10-16T14:11:28;6.67;;;3.90;;
9739;SDS011;4909;42.680;26.324;2022-10-16T14:13:55;8.87;;;4.47;;
9739;SDS011;4909;42.680;26.324;2022-10-16T14:16:23;7.10;;;3.73;;
9739;SDS011;4909;42.680;26.324;2022-10-16T14:18:56;7.03;;;4.00;;
9739;SDS011;4909;42.680;26.324;2022-10-16T14:21:26;11.00;;;4.70;;
9739;SDS011;4909;42.680;26.324;2022-10-16T14:23:54;11.43;;;4.80;;
9739;SDS011;4909;42.680;26.324;2022-10-16T14:26:22;11.30;;;4.90;;
9739;SDS011;4909;42.680;26.324;2022-10-16T14:29:01;9.00;;;4.20;;
9739;SDS011;4909;42.680;26.324;2022-10-16T14:31:37;12.80;;;5.37;;
9739;SDS011;4909;42.680;26.324;2022-10-16T14:34:05;7.20;;;3.83;;
9739;SDS011;4909;42.680;26.324;2022-10-16T14:36:53;8.30;;;4.00;;
9739;SDS011;4909;42.680;26.324;2022-10-16T14:39:21;6.53;;;3.33;;
9739;SDS011;4909;42.680;26.324;2022-10-16T14:41:51;4.03;;;2.83;;
9739;SDS011;4909;42.680;26.324;2022-10-16T14:44:18;3.57;;;3.23;;
9739;SDS011;4909;42.680;26.324;2022-10-16T14:46:50;11.03;;;4.27;;
9739;SDS011;4909;42.680;26.324;2022-10-16T14:49:17;5.70;;;3.30;;
9739;SDS011;4909;42.680;26.324;2022-10-16T14:51:46;4.87;;;3.00;;
9739;SDS011;4909;42.680;26.324;2022-10-16T14:54:15;8.13;;;3.50;;
9739;SDS011;4909;42.680;26.324;2022-10-16T14:56:47;8.20;;;3.40;;
9739;SDS011;4909;42.680;26.324;2022-10-16T14:59:17;5.80;;;3.10;;
9739;SDS011;4909;42.680;26.324;2022-10-16T15:01:48;7.93;;;3.27;;
9739;SDS011;4909;42.680;26.324;2022-10-16T15:04:15;11.63;;;4.27;;
9739;SDS011;4909;42.680;26.324;2022-10-16T15:06:43;6.20;;;3.13;;
9739;SDS011;4909;42.680;26.324;2022-10-16T15:09:10;9.23;;;3.57;;
9739;SDS011;4909;42.680;26.324;2022-10-16T15:11:39;6.30;;;3.03;;
9739;SDS011;4909;42.680;26.324;2022-10-16T15:14:08;7.13;;;3.40;;
9739;SDS011;4909;42.680;26.324;2022-10-16T15:16:37;9.03;;;3.80;;
9739;SDS011;4909;42.680;26.324;2022-10-16T15:19:04;7.00;;;3.00;;
9739;SDS011;4909;42.680;26.324;2022-10-16T15:21:31;5.20;;;3.00;;
9739;SDS011;4909;42.680;26.324;2022-10-16T15:23:58;7.37;;;3.10;;